Western, Nebraska
Current Conditions -  °F | °C
As of 8:15 AM on Sunday 23 Nov 2014 (Local Time) from KBIE Reporting Station
Light Rain Light Rain  
Wind Chill: 52°   Ceiling: 1500
Heat Index: 52°   Visibility: 2.5mi
Dew Point: 51°   Wind: 6mph
Humidity: 98%   Direction: 230°SW
Pressure: 29.49"   Gusts: NA
Location:  40.39°N, 97.2°W
Report Text: KBIE 231415Z AUTO 23005KT 2 1/2SM -RA BKN015 BKN022 OVC027 11/11 A2949 RMK AO2 T01100107
Loading
Personal Weather Stations






























Interactive Weather Map New forecast layout! Learn more

10-Day Weather Forecast

Advertisements
Track Severe Weather on mobile